ZMUB/ULN METAR and TAF weather

Enter ICAO airport designator
Station Type Date Time Source
ZMUB METAR 2023/01/30 11:00 UTC NOAA

ZMUB 301100Z VRB02MPS 9999 SCT100 M18/M22 Q1010 NOSIG RMK QFE651.2 66 NT


Station Type Date Time Source
ZMUB Decoded METAR 2023/01/30 11:00 UTC NOAA

Ulan-Bator, Mongolia (ZMUB) 47-51N 106-46E
Jan 30, 2023 - 06:00 AM EST / 2023.01.30 1100 UTC
Wind: Variable at 4 MPH (4 KT):0
Visibility: greater than 7 mile(s):0
Sky conditions: partly cloudy
Temperature: 0 F (-18 C)
Dew Point: -7 F (-22 C)
Relative Humidity: 70%
Pressure (altimeter): 29.83 in. Hg (1010 hPa)
ob: ZMUB 301100Z VRB02MPS 9999 SCT100 M18/M22 Q1010 NOSIG RMK QFE651.2 66 NT
cycle: 11

Station Type Date Time Source
ZMUB TAF 2023/01/30 12:48 UTC NOAA

TAF COR TAF COR ZMUB 301045Z 3012/3118 VRB02MPS 9999 BKN100 TNM28/3023Z TXM15/3107Z
TEMPO 3018/3106 6000 -SN BKN080

Example: see airport list